KCHO

Charlottesville-Albemarle Airport

Charlottesville, Virginia, USA
METAR KCHO 212353Z 20009KT 10SM FEW080 24/16 A3033 RMK AO2 SLP266 T02390161 10278 20233 53017
Observed Flight Rules
Feb-21 @ 23:53 UTC (5 hours ago) Visual Flight Rules
Wind Visibility Clouds
200° at 9 knots 10 miles
  • Few at 8,000' AGL
Temperatures Readings
Current 24°C / 75°F
Dewpoint 16°C / 61°F
Humidity 61%
Altimeter 30.33" Hg
Pressure 1026.6 hPa
Elevation 192
METAR KCHO 212353Z 20009KT 10SM FEW080 24/16 A3033 RMK AO2 SLP266 T02390161 10278 20233 53017
Observed Flight Rules
Feb-21 @ 23:53 UTC
(5 hours ago)
VFR
Wind Visibility
200° at 9 knots 10 miles
Clouds
  • Few at 8,000' AGL
Temperature Dewpoint
24°C / 75°F 16°C / 61°F
Humidity Altimeter Pressure
61% 30.33" Hg 1026.6 hPa